sensor_id;sensor_type;location;lat;lon;timestamp;P1;durP1;ratioP1;P2;durP2;ratioP2
61435;SDS011;47304;47.456;19.160;2024-03-23T00:52:57;33.90;;;18.80;;
61435;SDS011;47304;47.456;19.160;2024-03-23T00:55:25;30.60;;;17.50;;
61435;SDS011;47304;47.456;19.160;2024-03-23T00:57:53;34.00;;;18.60;;
61435;SDS011;47304;47.456;19.160;2024-03-23T01:00:21;29.80;;;17.60;;
61435;SDS011;47304;47.456;19.160;2024-03-23T01:02:50;34.20;;;18.40;;
61435;SDS011;47304;47.456;19.160;2024-03-23T01:05:18;32.20;;;18.00;;
61435;SDS011;47304;47.456;19.160;2024-03-23T01:07:46;31.90;;;17.90;;
61435;SDS011;47304;47.456;19.160;2024-03-23T01:10:14;33.80;;;18.30;;
61435;SDS011;47304;47.456;19.160;2024-03-23T01:12:43;27.70;;;16.60;;
61435;SDS011;47304;47.456;19.160;2024-03-23T01:15:11;29.10;;;16.60;;
61435;SDS011;47304;47.456;19.160;2024-03-23T01:17:39;28.40;;;17.10;;
61435;SDS011;47304;47.456;19.160;2024-03-23T01:20:07;29.70;;;17.00;;
61435;SDS011;47304;47.456;19.160;2024-03-23T01:22:37;28.20;;;16.60;;
61435;SDS011;47304;47.456;19.160;2024-03-23T01:25:06;32.00;;;17.30;;
61435;SDS011;47304;47.456;19.160;2024-03-23T01:27:34;30.00;;;16.90;;
61435;SDS011;47304;47.456;19.160;2024-03-23T01:30:02;28.70;;;17.00;;
61435;SDS011;47304;47.456;19.160;2024-03-23T01:32:31;29.10;;;17.40;;
61435;SDS011;47304;47.456;19.160;2024-03-23T01:34:59;32.10;;;16.80;;
61435;SDS011;47304;47.456;19.160;2024-03-23T01:37:27;27.80;;;16.50;;
61435;SDS011;47304;47.456;19.160;2024-03-23T01:39:55;28.40;;;16.90;;
61435;SDS011;47304;47.456;19.160;2024-03-23T01:42:23;30.40;;;17.20;;
61435;SDS011;47304;47.456;19.160;2024-03-23T01:44:52;29.60;;;16.20;;
61435;SDS011;47304;47.456;19.160;2024-03-23T01:47:20;26.30;;;16.20;;
61435;SDS011;47304;47.456;19.160;2024-03-23T01:49:48;30.40;;;16.60;;
61435;SDS011;47304;47.456;19.160;2024-03-23T01:52:16;29.10;;;17.10;;
61435;SDS011;47304;47.456;19.160;2024-03-23T01:54:44;26.20;;;16.50;;
61435;SDS011;47304;47.456;19.160;2024-03-23T01:57:12;30.00;;;17.80;;
61435;SDS011;47304;47.456;19.160;2024-03-23T01:59:40;26.20;;;16.70;;
61435;SDS011;47304;47.456;19.160;2024-03-23T02:02:08;28.00;;;17.10;;
61435;SDS011;47304;47.456;19.160;2024-03-23T02:04:36;31.00;;;16.30;;
61435;SDS011;47304;47.456;19.160;2024-03-23T02:07:04;34.30;;;17.90;;
61435;SDS011;47304;47.456;19.160;2024-03-23T02:09:34;28.80;;;17.30;;
61435;SDS011;47304;47.456;19.160;2024-03-23T02:12:03;31.90;;;17.00;;
61435;SDS011;47304;47.456;19.160;2024-03-23T02:14:32;27.00;;;15.80;;
61435;SDS011;47304;47.456;19.160;2024-03-23T02:17:00;30.70;;;17.10;;
61435;SDS011;47304;47.456;19.160;2024-03-23T02:19:28;31.20;;;17.40;;
61435;SDS011;47304;47.456;19.160;2024-03-23T02:21:56;33.00;;;17.40;;
61435;SDS011;47304;47.456;19.160;2024-03-23T02:24:24;29.90;;;17.70;;
61435;SDS011;47304;47.456;19.160;2024-03-23T02:26:52;32.20;;;17.40;;
61435;SDS011;47304;47.456;19.160;2024-03-23T02:29:20;31.50;;;18.40;;
61435;SDS011;47304;47.456;19.160;2024-03-23T02:31:48;29.00;;;17.70;;
61435;SDS011;47304;47.456;19.160;2024-03-23T02:34:16;28.10;;;17.30;;
61435;SDS011;47304;47.456;19.160;2024-03-23T02:36:44;28.60;;;17.70;;
61435;SDS011;47304;47.456;19.160;2024-03-23T02:39:12;27.00;;;16.80;;
61435;SDS011;47304;47.456;19.160;2024-03-23T02:41:40;28.40;;;17.30;;
61435;SDS011;47304;47.456;19.160;2024-03-23T02:44:08;27.80;;;16.90;;
61435;SDS011;47304;47.456;19.160;2024-03-23T02:46:36;29.90;;;16.80;;
61435;SDS011;47304;47.456;19.160;2024-03-23T02:49:04;27.80;;;16.80;;
61435;SDS011;47304;47.456;19.160;2024-03-23T02:51:32;31.80;;;17.90;;
61435;SDS011;47304;47.456;19.160;2024-03-23T02:54:00;30.90;;;18.60;;
61435;SDS011;47304;47.456;19.160;2024-03-23T02:56:28;29.60;;;18.10;;
61435;SDS011;47304;47.456;19.160;2024-03-23T02:58:58;29.60;;;16.90;;
61435;SDS011;47304;47.456;19.160;2024-03-23T03:01:26;31.70;;;18.20;;
61435;SDS011;47304;47.456;19.160;2024-03-23T03:03:54;30.00;;;17.50;;
61435;SDS011;47304;47.456;19.160;2024-03-23T03:06:25;31.20;;;17.40;;
61435;SDS011;47304;47.456;19.160;2024-03-23T03:08:53;26.60;;;16.90;;
61435;SDS011;47304;47.456;19.160;2024-03-23T03:11:21;29.00;;;16.60;;
61435;SDS011;47304;47.456;19.160;2024-03-23T03:13:50;30.30;;;17.60;;
61435;SDS011;47304;47.456;19.160;2024-03-23T03:16:18;27.50;;;16.50;;
61435;SDS011;47304;47.456;19.160;2024-03-23T03:18:46;26.20;;;15.60;;
61435;SDS011;47304;47.456;19.160;2024-03-23T03:21:14;24.90;;;15.50;;
61435;SDS011;47304;47.456;19.160;2024-03-23T03:23:42;30.30;;;15.10;;
61435;SDS011;47304;47.456;19.160;2024-03-23T03:26:10;28.90;;;16.30;;
61435;SDS011;47304;47.456;19.160;2024-03-23T03:28:38;30.70;;;16.20;;
61435;SDS011;47304;47.456;19.160;2024-03-23T03:31:06;26.10;;;15.70;;
61435;SDS011;47304;47.456;19.160;2024-03-23T03:33:35;26.60;;;15.70;;
61435;SDS011;47304;47.456;19.160;2024-03-23T03:36:03;28.20;;;16.50;;
61435;SDS011;47304;47.456;19.160;2024-03-23T03:38:32;24.90;;;14.70;;
61435;SDS011;47304;47.456;19.160;2024-03-23T03:41:00;25.60;;;15.90;;
61435;SDS011;47304;47.456;19.160;2024-03-23T03:43:29;23.10;;;14.30;;
61435;SDS011;47304;47.456;19.160;2024-03-23T03:45:57;26.10;;;14.30;;
61435;SDS011;47304;47.456;19.160;2024-03-23T03:48:26;27.30;;;15.70;;
61435;SDS011;47304;47.456;19.160;2024-03-23T03:50:55;25.00;;;14.70;;
61435;SDS011;47304;47.456;19.160;2024-03-23T03:53:23;26.20;;;15.00;;
61435;SDS011;47304;47.456;19.160;2024-03-23T03:55:51;23.70;;;14.60;;
61435;SDS011;47304;47.456;19.160;2024-03-23T03:58:19;27.90;;;16.00;;
61435;SDS011;47304;47.456;19.160;2024-03-23T04:00:47;24.70;;;15.30;;
61435;SDS011;47304;47.456;19.160;2024-03-23T04:03:15;25.80;;;14.80;;
61435;SDS011;47304;47.456;19.160;2024-03-23T04:05:47;25.30;;;16.10;;
61435;SDS011;47304;47.456;19.160;2024-03-23T04:08:18;27.30;;;15.40;;
61435;SDS011;47304;47.456;19.160;2024-03-23T04:10:46;29.70;;;15.30;;
61435;SDS011;47304;47.456;19.160;2024-03-23T04:13:14;25.50;;;14.60;;
61435;SDS011;47304;47.456;19.160;2024-03-23T04:15:42;26.70;;;15.00;;
61435;SDS011;47304;47.456;19.160;2024-03-23T04:18:10;26.50;;;15.10;;
61435;SDS011;47304;47.456;19.160;2024-03-23T04:20:38;25.10;;;15.00;;
61435;SDS011;47304;47.456;19.160;2024-03-23T04:23:06;25.00;;;15.00;;
61435;SDS011;47304;47.456;19.160;2024-03-23T04:25:34;28.40;;;14.80;;
61435;SDS011;47304;47.456;19.160;2024-03-23T04:28:02;29.90;;;15.70;;
61435;SDS011;47304;47.456;19.160;2024-03-23T04:30:31;28.50;;;16.40;;
61435;SDS011;47304;47.456;19.160;2024-03-23T04:32:58;25.80;;;15.60;;
61435;SDS011;47304;47.456;19.160;2024-03-23T04:35:26;27.30;;;15.30;;
61435;SDS011;47304;47.456;19.160;2024-03-23T04:37:55;25.10;;;14.40;;
61435;SDS011;47304;47.456;19.160;2024-03-23T04:40:23;23.10;;;14.40;;
61435;SDS011;47304;47.456;19.160;2024-03-23T04:42:51;26.90;;;15.00;;
61435;SDS011;47304;47.456;19.160;2024-03-23T04:45:19;23.90;;;14.30;;
61435;SDS011;47304;47.456;19.160;2024-03-23T04:47:47;25.90;;;14.00;;
61435;SDS011;47304;47.456;19.160;2024-03-23T04:50:15;23.90;;;15.30;;
61435;SDS011;47304;47.456;19.160;2024-03-23T04:52:44;26.30;;;15.40;;
61435;SDS011;47304;47.456;19.160;2024-03-23T04:55:11;26.40;;;14.90;;
61435;SDS011;47304;47.456;19.160;2024-03-23T04:57:39;25.10;;;15.30;;
61435;SDS011;47304;47.456;19.160;2024-03-23T05:00:08;28.90;;;16.30;;
61435;SDS011;47304;47.456;19.160;2024-03-23T05:02:38;25.10;;;15.30;;
61435;SDS011;47304;47.456;19.160;2024-03-23T05:05:06;26.30;;;15.70;;
61435;SDS011;47304;47.456;19.160;2024-03-23T05:07:34;27.10;;;15.60;;
61435;SDS011;47304;47.456;19.160;2024-03-23T05:10:02;29.00;;;15.30;;
61435;SDS011;47304;47.456;19.160;2024-03-23T05:12:31;27.30;;;15.30;;
61435;SDS011;47304;47.456;19.160;2024-03-23T05:14:59;26.70;;;15.90;;
61435;SDS011;47304;47.456;19.160;2024-03-23T05:17:27;22.90;;;15.00;;
61435;SDS011;47304;47.456;19.160;2024-03-23T05:19:55;25.10;;;15.60;;
61435;SDS011;47304;47.456;19.160;2024-03-23T05:22:23;25.90;;;15.70;;
61435;SDS011;47304;47.456;19.160;2024-03-23T05:24:51;25.50;;;15.30;;
61435;SDS011;47304;47.456;19.160;2024-03-23T05:27:19;24.70;;;14.80;;
61435;SDS011;47304;47.456;19.160;2024-03-23T05:29:47;27.30;;;16.00;;
61435;SDS011;47304;47.456;19.160;2024-03-23T05:32:15;28.00;;;16.30;;
61435;SDS011;47304;47.456;19.160;2024-03-23T05:34:43;27.90;;;15.90;;
61435;SDS011;47304;47.456;19.160;2024-03-23T05:37:12;25.30;;;15.60;;
61435;SDS011;47304;47.456;19.160;2024-03-23T05:39:40;28.30;;;16.90;;
61435;SDS011;47304;47.456;19.160;2024-03-23T05:42:08;27.60;;;16.00;;
61435;SDS011;47304;47.456;19.160;2024-03-23T05:44:35;29.50;;;17.90;;
61435;SDS011;47304;47.456;19.160;2024-03-23T05:47:03;26.40;;;16.80;;
61435;SDS011;47304;47.456;19.160;2024-03-23T05:49:32;26.50;;;16.50;;
61435;SDS011;47304;47.456;19.160;2024-03-23T05:52:00;25.70;;;16.30;;
61435;SDS011;47304;47.456;19.160;2024-03-23T05:54:28;26.60;;;16.10;;
61435;SDS011;47304;47.456;19.160;2024-03-23T05:56:56;31.50;;;18.00;;
61435;SDS011;47304;47.456;19.160;2024-03-23T05:59:24;30.50;;;18.60;;
61435;SDS011;47304;47.456;19.160;2024-03-23T06:01:52;28.50;;;16.70;;
61435;SDS011;47304;47.456;19.160;2024-03-23T06:04:20;28.00;;;17.00;;
61435;SDS011;47304;47.456;19.160;2024-03-23T06:06:48;27.90;;;16.40;;
61435;SDS011;47304;47.456;19.160;2024-03-23T06:09:17;28.30;;;17.30;;
61435;SDS011;47304;47.456;19.160;2024-03-23T06:11:45;27.30;;;17.40;;
61435;SDS011;47304;47.456;19.160;2024-03-23T06:14:14;26.00;;;16.80;;
61435;SDS011;47304;47.456;19.160;2024-03-23T06:16:43;27.90;;;17.10;;
61435;SDS011;47304;47.456;19.160;2024-03-23T06:19:11;27.50;;;16.40;;
61435;SDS011;47304;47.456;19.160;2024-03-23T06:21:41;24.70;;;15.40;;
61435;SDS011;47304;47.456;19.160;2024-03-23T06:24:11;25.50;;;15.90;;
61435;SDS011;47304;47.456;19.160;2024-03-23T06:26:39;30.80;;;19.20;;
61435;SDS011;47304;47.456;19.160;2024-03-23T06:29:07;25.00;;;15.50;;
61435;SDS011;47304;47.456;19.160;2024-03-23T06:31:35;25.30;;;15.60;;
61435;SDS011;47304;47.456;19.160;2024-03-23T06:34:03;25.00;;;16.00;;
61435;SDS011;47304;47.456;19.160;2024-03-23T06:36:31;24.70;;;16.10;;
61435;SDS011;47304;47.456;19.160;2024-03-23T06:38:59;25.70;;;16.30;;
61435;SDS011;47304;47.456;19.160;2024-03-23T06:41:28;24.30;;;16.10;;
61435;SDS011;47304;47.456;19.160;2024-03-23T06:43:56;26.10;;;16.50;;
61435;SDS011;47304;47.456;19.160;2024-03-23T06:46:24;23.70;;;15.60;;
61435;SDS011;47304;47.456;19.160;2024-03-23T06:48:52;23.50;;;14.40;;
61435;SDS011;47304;47.456;19.160;2024-03-23T06:51:20;21.60;;;14.10;;
61435;SDS011;47304;47.456;19.160;2024-03-23T06:53:48;23.20;;;14.50;;
61435;SDS011;47304;47.456;19.160;2024-03-23T06:56:17;25.20;;;16.00;;
61435;SDS011;47304;47.456;19.160;2024-03-23T06:58:45;25.50;;;15.70;;
61435;SDS011;47304;47.456;19.160;2024-03-23T07:01:13;23.50;;;14.50;;
61435;SDS011;47304;47.456;19.160;2024-03-23T07:03:41;22.60;;;15.70;;
61435;SDS011;47304;47.456;19.160;2024-03-23T07:06:10;25.80;;;15.70;;
61435;SDS011;47304;47.456;19.160;2024-03-23T07:08:38;24.80;;;14.40;;
61435;SDS011;47304;47.456;19.160;2024-03-23T07:11:06;22.20;;;14.50;;
61435;SDS011;47304;47.456;19.160;2024-03-23T07:13:34;24.90;;;16.30;;
61435;SDS011;47304;47.456;19.160;2024-03-23T07:16:02;22.60;;;15.50;;
61435;SDS011;47304;47.456;19.160;2024-03-23T07:18:31;22.60;;;15.20;;
61435;SDS011;47304;47.456;19.160;2024-03-23T07:20:59;24.10;;;15.60;;
61435;SDS011;47304;47.456;19.160;2024-03-23T07:23:27;22.00;;;14.60;;
61435;SDS011;47304;47.456;19.160;2024-03-23T07:25:58;24.40;;;14.70;;
61435;SDS011;47304;47.456;19.160;2024-03-23T07:31:05;26.00;;;14.40;;
61435;SDS011;47304;47.456;19.160;2024-03-23T07:33:35;24.40;;;15.00;;
61435;SDS011;47304;47.456;19.160;2024-03-23T07:36:08;21.00;;;14.30;;
61435;SDS011;47304;47.456;19.160;2024-03-23T07:38:36;27.30;;;15.50;;
61435;SDS011;47304;47.456;19.160;2024-03-23T07:41:06;22.70;;;15.80;;
61435;SDS011;47304;47.456;19.160;2024-03-23T07:43:36;21.90;;;14.00;;
61435;SDS011;47304;47.456;19.160;2024-03-23T07:46:04;22.90;;;14.70;;
61435;SDS011;47304;47.456;19.160;2024-03-23T07:48:32;23.10;;;14.00;;
61435;SDS011;47304;47.456;19.160;2024-03-23T07:51:01;21.50;;;13.90;;
61435;SDS011;47304;47.456;19.160;2024-03-23T07:53:31;19.70;;;13.80;;
61435;SDS011;47304;47.456;19.160;2024-03-23T07:56:00;22.40;;;15.60;;
61435;SDS011;47304;47.456;19.160;2024-03-23T07:58:29;20.90;;;14.60;;
61435;SDS011;47304;47.456;19.160;2024-03-23T08:01:02;21.20;;;13.30;;
61435;SDS011;47304;47.456;19.160;2024-03-23T08:03:31;22.10;;;14.20;;
61435;SDS011;47304;47.456;19.160;2024-03-23T08:06:01;23.10;;;14.60;;
61435;SDS011;47304;47.456;19.160;2024-03-23T08:08:34;19.30;;;13.60;;
61435;SDS011;47304;47.456;19.160;2024-03-23T08:11:03;21.50;;;15.80;;
61435;SDS011;47304;47.456;19.160;2024-03-23T08:13:32;21.50;;;13.60;;
61435;SDS011;47304;47.456;19.160;2024-03-23T08:16:01;18.70;;;12.40;;
61435;SDS011;47304;47.456;19.160;2024-03-23T08:18:29;20.20;;;12.50;;
61435;SDS011;47304;47.456;19.160;2024-03-23T08:20:58;19.60;;;12.30;;
61435;SDS011;47304;47.456;19.160;2024-03-23T08:23:26;20.50;;;11.70;;
61435;SDS011;47304;47.456;19.160;2024-03-23T08:25:58;20.60;;;13.00;;
61435;SDS011;47304;47.456;19.160;2024-03-23T08:28:27;17.70;;;12.10;;
61435;SDS011;47304;47.456;19.160;2024-03-23T08:30:55;18.70;;;13.10;;
61435;SDS011;47304;47.456;19.160;2024-03-23T08:33:26;19.00;;;11.70;;
61435;SDS011;47304;47.456;19.160;2024-03-23T08:35:55;16.00;;;11.10;;
61435;SDS011;47304;47.456;19.160;2024-03-23T08:38:23;18.50;;;12.90;;
61435;SDS011;47304;47.456;19.160;2024-03-23T08:40:57;18.00;;;11.00;;
61435;SDS011;47304;47.456;19.160;2024-03-23T08:43:26;18.60;;;12.30;;
61435;SDS011;47304;47.456;19.160;2024-03-23T08:45:54;17.30;;;10.90;;
61435;SDS011;47304;47.456;19.160;2024-03-23T08:48:31;16.40;;;11.90;;
61435;SDS011;47304;47.456;19.160;2024-03-23T08:51:01;16.00;;;10.70;;
61435;SDS011;47304;47.456;19.160;2024-03-23T08:53:29;16.40;;;10.10;;
61435;SDS011;47304;47.456;19.160;2024-03-23T08:55:58;17.40;;;12.00;;
61435;SDS011;47304;47.456;19.160;2024-03-23T08:58:26;18.00;;;11.90;;
61435;SDS011;47304;47.456;19.160;2024-03-23T09:00:55;16.50;;;11.70;;
61435;SDS011;47304;47.456;19.160;2024-03-23T09:03:29;16.30;;;11.60;;
61435;SDS011;47304;47.456;19.160;2024-03-23T09:05:57;14.50;;;9.80;;
61435;SDS011;47304;47.456;19.160;2024-03-23T09:08:25;17.50;;;12.10;;
61435;SDS011;47304;47.456;19.160;2024-03-23T09:10:53;15.70;;;10.10;;
61435;SDS011;47304;47.456;19.160;2024-03-23T09:13:21;16.90;;;12.40;;
61435;SDS011;47304;47.456;19.160;2024-03-23T09:15:50;18.20;;;12.50;;
61435;SDS011;47304;47.456;19.160;2024-03-23T09:18:18;16.10;;;11.20;;
61435;SDS011;47304;47.456;19.160;2024-03-23T09:20:46;16.70;;;11.90;;
61435;SDS011;47304;47.456;19.160;2024-03-23T09:23:14;18.10;;;12.00;;
61435;SDS011;47304;47.456;19.160;2024-03-23T09:25:42;18.40;;;12.90;;
61435;SDS011;47304;47.456;19.160;2024-03-23T09:28:10;16.30;;;12.40;;
61435;SDS011;47304;47.456;19.160;2024-03-23T09:30:38;20.10;;;12.20;;
61435;SDS011;47304;47.456;19.160;2024-03-23T09:33:06;18.90;;;13.00;;
61435;SDS011;47304;47.456;19.160;2024-03-23T09:35:37;20.80;;;12.70;;
61435;SDS011;47304;47.456;19.160;2024-03-23T09:38:05;14.60;;;10.60;;
61435;SDS011;47304;47.456;19.160;2024-03-23T09:40:33;17.00;;;12.40;;
61435;SDS011;47304;47.456;19.160;2024-03-23T09:43:06;17.30;;;12.20;;
61435;SDS011;47304;47.456;19.160;2024-03-23T09:45:35;16.70;;;11.50;;
61435;SDS011;47304;47.456;19.160;2024-03-23T09:48:06;14.60;;;10.50;;
61435;SDS011;47304;47.456;19.160;2024-03-23T09:50:34;16.00;;;10.80;;
61435;SDS011;47304;47.456;19.160;2024-03-23T09:53:04;12.70;;;9.00;;
61435;SDS011;47304;47.456;19.160;2024-03-23T09:55:34;11.50;;;9.00;;
61435;SDS011;47304;47.456;19.160;2024-03-23T09:58:02;12.70;;;8.60;;
61435;SDS011;47304;47.456;19.160;2024-03-23T10:00:31;11.90;;;7.90;;
61435;SDS011;47304;47.456;19.160;2024-03-23T10:02:59;12.10;;;8.20;;
61435;SDS011;47304;47.456;19.160;2024-03-23T10:05:28;10.70;;;7.70;;
61435;SDS011;47304;47.456;19.160;2024-03-23T10:07:57;11.20;;;7.40;;
61435;SDS011;47304;47.456;19.160;2024-03-23T10:10:26;10.60;;;6.60;;
61435;SDS011;47304;47.456;19.160;2024-03-23T10:12:54;10.10;;;6.20;;
61435;SDS011;47304;47.456;19.160;2024-03-23T10:15:22;9.50;;;5.40;;
61435;SDS011;47304;47.456;19.160;2024-03-23T10:17:51;10.40;;;5.10;;
61435;SDS011;47304;47.456;19.160;2024-03-23T10:20:20;11.30;;;4.70;;
61435;SDS011;47304;47.456;19.160;2024-03-23T10:22:49;13.30;;;4.80;;
61435;SDS011;47304;47.456;19.160;2024-03-23T10:25:17;10.30;;;5.10;;
61435;SDS011;47304;47.456;19.160;2024-03-23T10:27:56;8.10;;;3.90;;
61435;SDS011;47304;47.456;19.160;2024-03-23T10:30:26;7.10;;;4.00;;
61435;SDS011;47304;47.456;19.160;2024-03-23T10:32:54;8.40;;;3.60;;
61435;SDS011;47304;47.456;19.160;2024-03-23T10:35:34;9.10;;;4.20;;
61435;SDS011;47304;47.456;19.160;2024-03-23T10:38:04;7.60;;;3.90;;
61435;SDS011;47304;47.456;19.160;2024-03-23T10:40:33;8.40;;;3.70;;
61435;SDS011;47304;47.456;19.160;2024-03-23T10:43:02;8.70;;;3.60;;
61435;SDS011;47304;47.456;19.160;2024-03-23T10:45:31;8.70;;;4.40;;
61435;SDS011;47304;47.456;19.160;2024-03-23T10:47:59;9.30;;;3.90;;
61435;SDS011;47304;47.456;19.160;2024-03-23T10:50:27;11.50;;;4.30;;
61435;SDS011;47304;47.456;19.160;2024-03-23T10:52:55;13.00;;;4.00;;
61435;SDS011;47304;47.456;19.160;2024-03-23T10:55:24;10.40;;;4.20;;
61435;SDS011;47304;47.456;19.160;2024-03-23T10:57:54;10.20;;;4.70;;
61435;SDS011;47304;47.456;19.160;2024-03-23T11:00:23;8.00;;;4.00;;
61435;SDS011;47304;47.456;19.160;2024-03-23T11:02:51;7.60;;;3.60;;
61435;SDS011;47304;47.456;19.160;2024-03-23T11:05:29;9.60;;;4.30;;
61435;SDS011;47304;47.456;19.160;2024-03-23T11:07:57;9.40;;;4.00;;
61435;SDS011;47304;47.456;19.160;2024-03-23T11:10:26;9.30;;;4.50;;
61435;SDS011;47304;47.456;19.160;2024-03-23T11:12:54;9.50;;;4.70;;
61435;SDS011;47304;47.456;19.160;2024-03-23T11:15:22;10.60;;;4.60;;
61435;SDS011;47304;47.456;19.160;2024-03-23T11:18:03;9.90;;;4.40;;
61435;SDS011;47304;47.456;19.160;2024-03-23T11:20:32;10.40;;;4.30;;
61435;SDS011;47304;47.456;19.160;2024-03-23T11:23:00;8.30;;;4.10;;
61435;SDS011;47304;47.456;19.160;2024-03-23T11:25:28;8.20;;;4.50;;
61435;SDS011;47304;47.456;19.160;2024-03-23T11:27:57;8.70;;;4.20;;
61435;SDS011;47304;47.456;19.160;2024-03-23T11:30:37;8.40;;;4.40;;
61435;SDS011;47304;47.456;19.160;2024-03-23T11:33:05;9.80;;;3.90;;
61435;SDS011;47304;47.456;19.160;2024-03-23T11:35:34;8.40;;;4.10;;
61435;SDS011;47304;47.456;19.160;2024-03-23T11:38:06;8.40;;;4.30;;
61435;SDS011;47304;47.456;19.160;2024-03-23T11:40:35;8.70;;;4.00;;
61435;SDS011;47304;47.456;19.160;2024-03-23T11:43:05;8.00;;;3.90;;
61435;SDS011;47304;47.456;19.160;2024-03-23T11:45:34;9.60;;;4.30;;
61435;SDS011;47304;47.456;19.160;2024-03-23T11:48:04;8.60;;;4.20;;
61435;SDS011;47304;47.456;19.160;2024-03-23T11:50:34;9.10;;;4.20;;
61435;SDS011;47304;47.456;19.160;2024-03-23T11:53:07;8.10;;;3.70;;
61435;SDS011;47304;47.456;19.160;2024-03-23T11:55:41;8.50;;;4.00;;
61435;SDS011;47304;47.456;19.160;2024-03-23T11:58:10;8.30;;;4.20;;
61435;SDS011;47304;47.456;19.160;2024-03-23T12:00:38;9.50;;;4.40;;
61435;SDS011;47304;47.456;19.160;2024-03-23T12:03:06;10.30;;;3.60;;
61435;SDS011;47304;47.456;19.160;2024-03-23T12:05:35;9.40;;;3.40;;
61435;SDS011;47304;47.456;19.160;2024-03-23T12:08:19;9.30;;;3.80;;
61435;SDS011;47304;47.456;19.160;2024-03-23T12:10:49;8.60;;;3.60;;
61435;SDS011;47304;47.456;19.160;2024-03-23T12:13:18;9.20;;;3.90;;
61435;SDS011;47304;47.456;19.160;2024-03-23T12:15:47;11.50;;;3.70;;
61435;SDS011;47304;47.456;19.160;2024-03-23T12:18:16;7.90;;;3.60;;
61435;SDS011;47304;47.456;19.160;2024-03-23T12:20:49;7.60;;;3.50;;
61435;SDS011;47304;47.456;19.160;2024-03-23T12:23:17;7.70;;;3.20;;
61435;SDS011;47304;47.456;19.160;2024-03-23T12:25:45;10.40;;;3.60;;
61435;SDS011;47304;47.456;19.160;2024-03-23T12:28:16;6.80;;;3.40;;
61435;SDS011;47304;47.456;19.160;2024-03-23T12:30:44;8.00;;;3.30;;
61435;SDS011;47304;47.456;19.160;2024-03-23T12:33:12;7.90;;;3.50;;
61435;SDS011;47304;47.456;19.160;2024-03-23T12:35:41;9.90;;;3.40;;
61435;SDS011;47304;47.456;19.160;2024-03-23T12:38:09;9.50;;;3.30;;
61435;SDS011;47304;47.456;19.160;2024-03-23T12:40:37;9.60;;;3.70;;
61435;SDS011;47304;47.456;19.160;2024-03-23T12:43:05;8.20;;;3.20;;
61435;SDS011;47304;47.456;19.160;2024-03-23T12:45:33;7.30;;;3.00;;
61435;SDS011;47304;47.456;19.160;2024-03-23T12:48:01;8.10;;;3.20;;
61435;SDS011;47304;47.456;19.160;2024-03-23T12:50:29;9.90;;;3.20;;
61435;SDS011;47304;47.456;19.160;2024-03-23T12:52:57;7.70;;;3.10;;
61435;SDS011;47304;47.456;19.160;2024-03-23T12:55:25;7.60;;;3.10;;
61435;SDS011;47304;47.456;19.160;2024-03-23T12:57:53;7.00;;;2.90;;
61435;SDS011;47304;47.456;19.160;2024-03-23T13:00:21;8.00;;;2.90;;
61435;SDS011;47304;47.456;19.160;2024-03-23T13:02:50;6.90;;;3.30;;
61435;SDS011;47304;47.456;19.160;2024-03-23T13:05:18;8.30;;;3.10;;
61435;SDS011;47304;47.456;19.160;2024-03-23T13:07:46;6.60;;;3.00;;
61435;SDS011;47304;47.456;19.160;2024-03-23T13:10:14;6.60;;;3.10;;
61435;SDS011;47304;47.456;19.160;2024-03-23T13:12:42;9.00;;;3.10;;
61435;SDS011;47304;47.456;19.160;2024-03-23T13:15:10;8.70;;;3.10;;
61435;SDS011;47304;47.456;19.160;2024-03-23T13:17:38;7.30;;;2.90;;
61435;SDS011;47304;47.456;19.160;2024-03-23T13:20:07;8.20;;;2.90;;
61435;SDS011;47304;47.456;19.160;2024-03-23T13:22:36;7.40;;;2.80;;
61435;SDS011;47304;47.456;19.160;2024-03-23T13:25:04;8.30;;;3.30;;
61435;SDS011;47304;47.456;19.160;2024-03-23T13:27:34;7.20;;;3.20;;
61435;SDS011;47304;47.456;19.160;2024-03-23T13:30:02;5.50;;;2.80;;
61435;SDS011;47304;47.456;19.160;2024-03-23T13:32:31;8.50;;;4.00;;
61435;SDS011;47304;47.456;19.160;2024-03-23T13:34:59;7.80;;;2.90;;
61435;SDS011;47304;47.456;19.160;2024-03-23T13:37:27;7.30;;;2.70;;
61435;SDS011;47304;47.456;19.160;2024-03-23T13:39:55;6.50;;;2.80;;
61435;SDS011;47304;47.456;19.160;2024-03-23T13:42:23;6.70;;;2.90;;
61435;SDS011;47304;47.456;19.160;2024-03-23T13:44:52;7.30;;;2.90;;
61435;SDS011;47304;47.456;19.160;2024-03-23T13:47:20;6.10;;;2.70;;
61435;SDS011;47304;47.456;19.160;2024-03-23T13:49:48;5.30;;;2.30;;
61435;SDS011;47304;47.456;19.160;2024-03-23T13:52:16;10.20;;;4.10;;
61435;SDS011;47304;47.456;19.160;2024-03-23T13:54:44;7.80;;;3.30;;
61435;SDS011;47304;47.456;19.160;2024-03-23T13:57:12;7.50;;;3.20;;
61435;SDS011;47304;47.456;19.160;2024-03-23T13:59:40;7.00;;;3.40;;
61435;SDS011;47304;47.456;19.160;2024-03-23T14:02:08;9.10;;;3.60;;
61435;SDS011;47304;47.456;19.160;2024-03-23T14:04:36;9.40;;;3.70;;
61435;SDS011;47304;47.456;19.160;2024-03-23T14:07:05;8.10;;;3.40;;
61435;SDS011;47304;47.456;19.160;2024-03-23T14:09:33;11.10;;;4.70;;
61435;SDS011;47304;47.456;19.160;2024-03-23T14:12:00;9.50;;;3.90;;
61435;SDS011;47304;47.456;19.160;2024-03-23T14:14:29;10.60;;;3.90;;
61435;SDS011;47304;47.456;19.160;2024-03-23T14:16:56;9.90;;;4.30;;
61435;SDS011;47304;47.456;19.160;2024-03-23T14:19:24;7.90;;;3.20;;
61435;SDS011;47304;47.456;19.160;2024-03-23T14:21:52;9.30;;;3.80;;
61435;SDS011;47304;47.456;19.160;2024-03-23T14:24:20;8.20;;;3.20;;
61435;SDS011;47304;47.456;19.160;2024-03-23T14:26:48;7.00;;;3.10;;
61435;SDS011;47304;47.456;19.160;2024-03-23T14:29:16;6.70;;;3.00;;
61435;SDS011;47304;47.456;19.160;2024-03-23T14:31:44;6.40;;;3.50;;
61435;SDS011;47304;47.456;19.160;2024-03-23T14:34:12;7.80;;;2.90;;
61435;SDS011;47304;47.456;19.160;2024-03-23T14:36:40;9.40;;;3.50;;
61435;SDS011;47304;47.456;19.160;2024-03-23T14:39:09;8.50;;;3.30;;
61435;SDS011;47304;47.456;19.160;2024-03-23T14:41:37;7.30;;;3.10;;
61435;SDS011;47304;47.456;19.160;2024-03-23T14:44:05;9.80;;;3.40;;
61435;SDS011;47304;47.456;19.160;2024-03-23T14:46:33;7.20;;;3.10;;
61435;SDS011;47304;47.456;19.160;2024-03-23T14:49:01;7.50;;;3.30;;
61435;SDS011;47304;47.456;19.160;2024-03-23T14:51:29;8.80;;;3.30;;
61435;SDS011;47304;47.456;19.160;2024-03-23T14:53:58;8.90;;;3.30;;
61435;SDS011;47304;47.456;19.160;2024-03-23T14:56:25;8.60;;;3.10;;
61435;SDS011;47304;47.456;19.160;2024-03-23T14:58:53;6.60;;;3.00;;
61435;SDS011;47304;47.456;19.160;2024-03-23T15:01:22;6.80;;;3.20;;
61435;SDS011;47304;47.456;19.160;2024-03-23T15:03:49;7.40;;;3.40;;
61435;SDS011;47304;47.456;19.160;2024-03-23T15:06:17;6.60;;;2.60;;
61435;SDS011;47304;47.456;19.160;2024-03-23T15:08:46;8.20;;;3.10;;
61435;SDS011;47304;47.456;19.160;2024-03-23T15:11:13;8.20;;;3.80;;
61435;SDS011;47304;47.456;19.160;2024-03-23T15:13:41;8.50;;;3.70;;
61435;SDS011;47304;47.456;19.160;2024-03-23T15:16:09;5.90;;;2.80;;
61435;SDS011;47304;47.456;19.160;2024-03-23T15:18:38;7.10;;;3.30;;
61435;SDS011;47304;47.456;19.160;2024-03-23T15:21:05;8.00;;;3.40;;